Latest Weather Observations for Mount Hope

IDN60801

Issued at 4:42 pm EDT Sunday 18 November 2018 (issued every 10 minutes, with the page automatically refreshed every 10 minutes)

About weather observations | Map of weather stations | Latest weather observations for NSW | Other Formats
Station Details ID: 049136 Name: MOUNT HOPE AWS Lat: -32.83 Lon: 145.88 Height: 209.0 m
Data from the previous 72 hours. | See also: Recent months at Mount Hope
Date/Time
EDT
Temp
°C
App
Temp
°C
Dew
Point
°C
Rel
Hum
%
Delta-T
°C
Wind Press
QNH
hPa
Press
MSL
hPa
Rain since
9am
mm
Dir  Spd
km/h
Gust
km/h
Spd
kts
Gust
kts
18/04:30pm 29.3 - 4.0 20 13.0 - - - - - - - 0.0
18/04:00pm 29.9 - 4.5 20 13.2 - - - - - - - 0.0
18/03:30pm 29.2 - 5.3 22 12.6 - - - - - - - 0.0
18/03:00pm 29.7 - 5.1 21 12.9 - - - - - - - 0.0
18/02:30pm 28.9 - 5.1 22 12.4 - - - - - - - 0.0
18/02:00pm 29.7 - 5.1 21 12.9 - - - - - - - 0.0
18/01:30pm 28.6 - 8.8 29 11.0 - - - - - - - 0.0
18/01:00pm 27.6 - 9.0 31 10.3 - - - - - - - 0.0
18/12:30pm 27.1 - 9.0 32 10.0 - - - - - - - 0.0
18/12:00pm 26.3 - 8.8 33 9.6 - - - - - - - 0.0
18/11:30am 25.7 - 9.1 35 9.1 - - - - - - - 0.0
18/11:00am 25.1 - 9.0 36 8.8 - - - - - - - 0.0
18/10:30am 23.7 - 8.9 39 8.0 - - - - - - - 0.0
18/10:00am 22.7 - 9.1 42 7.4 - - - - - - - 0.0
18/09:30am 21.9 - 9.4 45 6.8 - - - - - - - 0.0
18/09:00am 21.4 - 9.3 46 6.5 - - - - - - - 0.0
18/08:30am 20.3 - 9.2 49 5.9 - - - - - - - 0.0
18/08:00am 19.8 - 9.4 51 5.6 - - - - - - - 0.0
18/07:30am 19.1 - 9.6 54 5.1 - - - - - - - 0.0
18/07:00am 18.6 - 9.9 57 4.7 - - - - - - - 0.0
18/06:30am 18.1 - 10.2 60 4.3 - - - - - - - 0.0
18/06:00am 18.1 - 10.2 60 4.3 - - - - - - - 0.0
18/05:30am 18.4 - 10.0 58 4.5 - - - - - - - 0.0
18/05:00am 18.7 - 9.8 56 4.8 - - - - - - - 0.0
18/04:30am 19.0 - 9.8 55 4.9 - - - - - - - 0.0
18/04:00am 17.9 - 7.6 51 5.3 - - - - - - - 0.0
18/03:30am 17.8 - 6.7 48 5.6 - - - - - - - 0.0
18/03:00am 17.7 - 4.6 42 6.3 - - - - - - - 0.0
18/02:30am 17.6 - 0.7 32 7.5 - - - - - - - 0.0
18/02:00am 18.0 - -1.8 26 8.4 - - - - - - - 0.0
18/01:30am 19.9 - -1.2 24 9.2 - - - - - - - 0.0
18/01:00am 17.6 - -1.6 27 8.1 - - - - - - - 0.0
18/12:30am 15.3 - -0.9 33 6.8 - - - - - - - 0.0
18/12:00am 14.9 - -1.2 33 6.7 - - - - - - - 0.0
 
Date/Time
EDT
Temp
°C
App
Temp
°C
Dew
Point
°C
Rel
Hum
%
Delta-T
°C
Wind Press
QNH
hPa
Press
MSL
hPa
Rain since
9am
mm
Dir  Spd
km/h
Gust
km/h
Spd
kts
Gust
kts
17/11:30pm 15.3 - -0.9 33 6.8 - - - - - - - 0.0
17/11:00pm 16.6 - -1.5 29 7.6 - - - - - - - 0.0
17/10:30pm 17.1 - -2.5 26 8.1 - - - - - - - 0.0
17/10:00pm 17.4 - -0.8 29 7.8 - - - - - - - 0.0
17/09:30pm 18.2 - -2.7 24 8.7 - - - - - - - 0.0
17/09:00pm 20.4 - -3.3 20 9.9 - - - - - - - 0.0
17/08:30pm 23.4 - -5.6 14 12.0 - - - - - - - 0.0
17/08:00pm 25.0 - -5.3 13 12.8 - - - - - - - 0.0
17/07:30pm 26.1 - -4.4 13 13.2 - - - - - - - 0.0
17/07:00pm 26.9 - -1.9 15 13.1 - - - - - - - 0.0
17/06:30pm 27.4 - -1.5 15 13.3 - - - - - - - 0.0
17/06:00pm 27.9 - -0.2 16 13.3 - - - - - - - 0.0
17/05:30pm 28.2 - -0.9 15 13.6 - - - - - - - 0.0
17/05:00pm 28.5 - -0.6 15 13.7 - - - - - - - 0.0
17/04:30pm 28.6 - -1.5 14 14.0 - - - - - - - 0.0
17/04:00pm 29.3 - -0.9 14 14.3 - - - - - - - 0.0
17/03:30pm 28.8 - -2.3 13 14.3 - - - - - - - 0.0
17/03:00pm 28.6 - -1.5 14 14.0 - - - - - - - 0.0
17/02:30pm 29.3 - -0.9 14 14.3 - - - - - - - 0.0
17/02:00pm 28.2 - 0.0 16 13.4 - - - - - - - 0.0
17/01:30pm 28.0 - -1.0 15 13.5 - - - - - - - 0.0
17/01:00pm 28.1 - -0.9 15 13.6 - - - - - - - 0.0
17/12:30pm 27.4 - -2.4 14 13.5 - - - - - - - 0.0
17/12:00pm 26.8 - -0.3 17 12.7 - - - - - - - 0.0
17/11:30am 26.4 - -1.4 16 12.7 - - - - - - - 0.0
17/11:00am 25.9 - -0.2 18 12.2 - - - - - - - 0.0
17/10:30am 25.1 - -2.5 16 12.3 - - - - - - - 0.0
17/10:00am 24.4 - -1.4 18 11.6 - - - - - - - 0.0
17/09:30am 23.5 - -2.2 18 11.3 - - - - - - - 0.0
17/09:00am 22.8 - -2.7 18 11.1 - - - - - - - 0.0
17/08:30am 21.5 - -3.1 19 10.5 - - - - - - - 0.0
17/08:00am 20.0 - -3.6 20 9.8 - - - - - - - 0.0
17/07:30am 16.8 - -1.3 29 7.6 - - - - - - - 0.0
17/07:00am 13.6 - 0.3 40 5.6 - - - - - - - 0.0
17/06:30am 11.7 - 0.5 46 4.7 - - - - - - - 0.0
17/06:00am 12.9 - -0.7 39 5.6 - - - - - - - 0.0
17/05:30am 13.8 - -1.8 34 6.3 - - - - - - - 0.0
17/05:00am 9.5 - 1.9 59 3.2 - - - - - - - 0.0
17/04:30am 9.6 - 1.0 55 3.6 - - - - - - - 0.0
17/04:00am 10.0 - 0.9 53 3.8 - - - - - - - 0.0
17/03:30am 10.2 - 1.1 53 3.8 - - - - - - - 0.0
17/03:00am 10.5 - 1.1 52 3.9 - - - - - - - 0.0
17/02:30am 10.9 - 1.4 52 4.0 - - - - - - - 0.0
17/02:00am 11.4 - 0.8 48 4.5 - - - - - - - 0.0
17/01:30am 12.0 - 0.1 44 5.0 - - - - - - - 0.0
17/01:00am 12.5 - 0.0 42 5.2 - - - - - - - 0.0
17/12:30am 13.1 - 1.1 44 5.2 - - - - - - - 0.0
17/12:00am 13.6 - 2.2 46 5.0 - - - - - - - 0.0
 
Date/Time
EDT
Temp
°C
App
Temp
°C
Dew
Point
°C
Rel
Hum
%
Delta-T
°C
Wind Press
QNH
hPa
Press
MSL
hPa
Rain since
9am
mm
Dir  Spd
km/h
Gust
km/h
Spd
kts
Gust
kts
16/11:30pm 14.2 - 1.5 42 5.6 - - - - - - - 0.0
16/11:00pm 14.9 - 1.1 39 6.0 - - - - - - - 0.0
16/10:30pm 15.9 - -0.3 33 6.9 - - - - - - - 0.0
16/10:00pm 17.0 - -1.1 29 7.7 - - - - - - - 0.0
16/09:30pm 18.6 - -2.9 23 8.9 - - - - - - - 0.0
16/09:00pm 20.6 - -5.3 17 10.5 - - - - - - - 0.0
16/08:30pm 23.3 - -7.7 12 12.3 - - - - - - - 0.0
16/08:00pm 25.0 - -8.7 10 13.3 - - - - - - - 0.0
16/07:30pm 26.4 - -9.0 9 14.1 - - - - - - - 0.0
16/07:00pm 27.1 - -9.9 8 14.6 - - - - - - - 0.0
16/06:30pm 27.9 - -9.4 8 15.0 - - - - - - - 0.0
16/06:00pm 28.2 - -7.6 9 14.9 - - - - - - - 0.0
16/05:30pm 28.2 - -9.1 8 15.1 - - - - - - - 0.0
16/05:00pm 28.3 - -7.6 9 14.9 - - - - - - - 0.0
16/04:30pm 28.5 - -7.4 9 15.0 - - - - - - - 0.0
16/04:00pm 28.4 - -7.5 9 15.0 - - - - - - - 0.0
16/03:30pm 27.9 - -5.2 11 14.3 - - - - - - - 0.0
16/03:00pm 28.1 - -5.1 11 14.4 - - - - - - - 0.0
16/02:30pm 27.4 - -4.5 12 13.9 - - - - - - - 0.0
16/02:00pm 27.7 - -2.2 14 13.6 - - - - - - - 0.0
16/01:30pm 27.0 - -1.8 15 13.2 - - - - - - - 0.0
16/01:00pm 26.0 - -0.1 18 12.2 - - - - - - - 0.0
16/12:30pm 25.7 - 1.8 21 11.5 - - - - - - - 0.0
16/12:00pm 25.4 - 2.8 23 11.1 - - - - - - - 0.0
16/11:30am 24.2 - 3.5 26 10.2 - - - - - - - 0.0
16/11:00am 23.8 - 2.6 25 10.3 - - - - - - - 0.0
16/10:30am 23.2 - 3.7 28 9.6 - - - - - - - 0.0
16/10:00am 22.5 - 5.0 32 8.8 - - - - - - - 0.0
16/09:30am 21.3 - 8.2 43 6.9 - - - - - - - 0.0
16/09:00am 19.9 - 8.3 47 6.1 - - - - - - - 0.0
16/08:30am 18.9 - 8.8 52 5.3 - - - - - - - 0.0
16/08:00am 17.1 - 7.2 52 5.0 - - - - - - - 0.0
16/07:30am 16.1 - 6.0 51 4.9 - - - - - - - 0.0
16/07:00am 12.2 - 5.1 62 3.3 - - - - - - - 0.0
16/06:30am 10.0 - 5.4 73 2.1 - - - - - - - 0.0
16/06:00am 10.2 - 5.4 72 2.2 - - - - - - - 0.0
16/05:30am 11.3 - 5.0 65 2.9 - - - - - - - 0.0
16/05:00am 12.6 - 4.8 59 3.6 - - - - - - - 0.0
16/04:30am 13.4 - 4.8 56 4.0 - - - - - - - 0.0
16/04:00am 13.7 - 5.1 56 4.1 - - - - - - - 0.0
16/03:30am 14.8 - 4.5 50 4.8 - - - - - - - 0.0
16/03:00am 15.5 - 4.6 48 5.2 - - - - - - - 0.0
16/02:30am 16.7 - 4.4 44 5.8 - - - - - - - 0.0
16/02:00am 17.5 - 4.1 41 6.4 - - - - - - - 0.0
16/01:30am 15.7 - 5.6 51 4.9 - - - - - - - 0.0
16/01:00am 16.5 - 5.5 48 5.3 - - - - - - - 0.0
16/12:30am 18.7 - 4.1 38 7.0 - - - - - - - 0.0
16/12:00am 18.9 - 4.3 38 7.0 - - - - - - - 0.0
 
Date/Time
EDT
Temp
°C
App
Temp
°C
Dew
Point
°C
Rel
Hum
%
Delta-T
°C
Wind Press
QNH
hPa
Press
MSL
hPa
Rain since
9am
mm
Dir  Spd
km/h
Gust
km/h
Spd
kts
Gust
kts
15/11:30pm 19.4 - 4.4 37 7.3 - - - - - - - 0.0
15/11:00pm 20.2 - 3.9 34 7.9 - - - - - - - 0.0
15/10:30pm 20.8 - 4.4 34 8.0 - - - - - - - 0.0
15/10:00pm 21.2 - 4.3 33 8.3 - - - - - - - 0.0
15/09:30pm 21.9 - 4.5 32 8.6 - - - - - - - 0.0
15/09:00pm 23.0 - 4.0 29 9.4 - - - - - - - 0.0
15/08:30pm 23.9 - 4.3 28 9.8 - - - - - - - 0.0
15/08:00pm 24.9 - 4.1 26 10.4 - - - - - - - 0.0
15/07:30pm 25.8 - 3.7 24 11.1 - - - - - - - 0.0
15/07:00pm 26.7 - 3.9 23 11.5 - - - - - - - 0.0
15/06:30pm 27.3 - 4.4 23 11.7 - - - - - - - 0.0
15/06:00pm 27.0 - 4.7 24 11.4 - - - - - - - 0.0
15/05:30pm 27.6 - 6.4 26 11.2 - - - - - - - 0.0
15/05:00pm 27.8 - 6.0 25 11.5 - - - - - - - 0.0

Other Formats:

Comma delimited format used in spreadsheet applications
http://www.bom.gov.au/fwo/IDN60801/IDN60801.95682.axf

JavaScript Object Notation format (JSON) in row-major order
http://www.bom.gov.au/fwo/IDN60801/IDN60801.95682.json